createdAt,value
2018-12-09T00:00:24.209Z,7.20
2018-12-09T00:02:58.882Z,7.10
2018-12-09T00:05:33.919Z,7.00
2018-12-09T00:08:08.693Z,7.00
2018-12-09T00:10:46.874Z,6.90
2018-12-09T00:13:21.093Z,6.80
2018-12-09T00:15:55.283Z,6.70
2018-12-09T00:18:33.128Z,6.60
2018-12-09T00:21:07.295Z,6.60
2018-12-09T00:23:45.574Z,6.60
2018-12-09T00:26:19.669Z,6.60
2018-12-09T00:28:57.896Z,6.60
2018-12-09T00:31:32.196Z,6.50
2018-12-09T00:34:06.463Z,6.60
2018-12-09T00:36:40.287Z,6.50
2018-12-09T00:39:14.150Z,6.40
2018-12-09T00:41:48.423Z,6.40
2018-12-09T00:44:22.582Z,6.30
2018-12-09T00:46:56.540Z,6.20
2018-12-09T00:49:30.622Z,6.20
2018-12-09T00:52:05.317Z,6.10
2018-12-09T00:54:39.257Z,6.10
2018-12-09T00:57:13.303Z,6.20
2018-12-09T00:59:47.708Z,6.20
2018-12-09T01:02:25.586Z,6.10
2018-12-09T01:04:59.776Z,6.10
2018-12-09T01:07:33.879Z,6.20
2018-12-09T01:10:09.423Z,6.20
2018-12-09T01:12:43.258Z,6.20
2018-12-09T01:15:17.576Z,6.20
2018-12-09T01:17:51.660Z,6.20
2018-12-09T01:20:26.027Z,6.30
2018-12-09T01:22:59.995Z,6.20
2018-12-09T01:25:38.214Z,6.10
2018-12-09T01:28:17.144Z,6.10
2018-12-09T01:30:51.904Z,6.10
2018-12-09T01:33:25.848Z,6.10
2018-12-09T01:35:59.830Z,6.10
2018-12-09T01:38:33.846Z,6.10
2018-12-09T01:41:07.849Z,6.20
2018-12-09T01:43:41.785Z,6.10
2018-12-09T01:46:15.929Z,6.10
2018-12-09T01:48:51.184Z,6.10
2018-12-09T01:51:25.085Z,6.00
2018-12-09T01:54:16.272Z,6.00
2018-12-09T01:56:54.874Z,6.00
2018-12-09T01:59:29.241Z,6.00
2018-12-09T02:02:03.914Z,5.90
2018-12-09T02:04:37.725Z,5.80
2018-12-09T02:07:11.722Z,5.80
2018-12-09T02:09:49.949Z,5.70
2018-12-09T02:12:24.097Z,5.60
2018-12-09T02:14:58.028Z,5.60
2018-12-09T02:17:35.854Z,5.50
2018-12-09T02:20:10.144Z,5.40
2018-12-09T02:22:48.590Z,5.30
2018-12-09T02:25:22.562Z,5.20
2018-12-09T02:27:56.564Z,5.10
2018-12-09T02:30:31.076Z,5.00
2018-12-09T02:33:05.067Z,5.00
2018-12-09T02:35:46.920Z,5.00
2018-12-09T02:38:21.635Z,5.00
2018-12-09T02:40:59.530Z,4.90
2018-12-09T02:43:33.998Z,4.90
2018-12-09T02:46:08.482Z,4.90
2018-12-09T02:48:42.344Z,4.80
2018-12-09T02:51:16.330Z,4.80
2018-12-09T02:53:50.667Z,4.90
2018-12-09T02:56:24.789Z,4.90
2018-12-09T02:58:58.999Z,5.00
2018-12-09T03:01:37.066Z,4.90
2018-12-09T03:04:15.216Z,5.00
2018-12-09T03:06:49.306Z,5.00
2018-12-09T03:09:23.381Z,5.00
2018-12-09T03:11:57.386Z,5.00
2018-12-09T03:14:31.791Z,5.10
2018-12-09T03:17:06.389Z,5.10
2018-12-09T03:19:41.000Z,5.10
2018-12-09T03:22:15.016Z,5.10
2018-12-09T03:24:49.131Z,5.10
2018-12-09T03:27:23.174Z,5.10
2018-12-09T03:29:57.383Z,5.00
2018-12-09T03:32:31.638Z,5.00
2018-12-09T03:35:06.249Z,4.90
2018-12-09T03:37:40.589Z,5.00
2018-12-09T03:40:15.098Z,5.00
2018-12-09T03:42:48.946Z,5.00
2018-12-09T03:45:23.130Z,4.90
2018-12-09T03:47:57.404Z,5.00
2018-12-09T03:50:35.855Z,5.00
2018-12-09T03:53:10.080Z,4.90
2018-12-09T03:55:43.874Z,4.90
2018-12-09T03:58:22.434Z,4.80
2018-12-09T04:00:56.648Z,4.80
2018-12-09T04:06:03.846Z,4.90
2018-12-09T04:08:37.826Z,4.90
2018-12-09T04:11:12.421Z,4.90
2018-12-09T04:13:46.464Z,4.90
2018-12-09T04:16:21.064Z,4.90
2018-12-09T04:18:54.910Z,4.90
2018-12-09T04:21:28.854Z,4.90
2018-12-09T04:24:06.847Z,4.90
2018-12-09T04:26:40.938Z,4.90
2018-12-09T04:29:14.868Z,4.90
2018-12-09T04:31:48.787Z,4.90
2018-12-09T04:34:22.866Z,4.90
2018-12-09T04:36:56.963Z,4.80
2018-12-09T04:39:41.657Z,4.80
2018-12-09T04:42:16.156Z,4.70
2018-12-09T04:44:57.506Z,4.70
2018-12-09T04:47:31.883Z,4.70
2018-12-09T04:50:07.133Z,4.70
2018-12-09T04:52:45.235Z,4.70
2018-12-09T04:55:23.236Z,4.70
2018-12-09T04:57:57.327Z,4.70
2018-12-09T05:00:47.692Z,4.70
2018-12-09T05:03:26.441Z,4.70
2018-12-09T05:11:05.916Z,4.90
2018-12-09T05:16:12.946Z,4.90
2018-12-09T05:21:19.691Z,4.70
2018-12-09T05:23:53.940Z,4.70
2018-12-09T05:26:29.040Z,4.70
2018-12-09T05:29:02.993Z,4.70
2018-12-09T05:31:41.191Z,4.70
2018-12-09T05:34:15.434Z,4.80
2018-12-09T05:36:49.498Z,4.80
2018-12-09T05:39:23.799Z,4.80
2018-12-09T05:42:02.000Z,4.80
2018-12-09T05:44:36.324Z,4.80
2018-12-09T05:47:14.256Z,4.80
2018-12-09T05:49:48.368Z,4.80
2018-12-09T05:52:22.748Z,4.80
2018-12-09T05:54:56.545Z,4.80
2018-12-09T05:57:31.016Z,4.80
2018-12-09T06:00:06.318Z,4.80
2018-12-09T06:02:56.003Z,4.70
2018-12-09T06:05:30.518Z,4.70
2018-12-09T06:08:04.742Z,4.70
2018-12-09T06:10:42.943Z,4.80
2018-12-09T06:13:16.994Z,4.70
2018-12-09T06:15:50.972Z,4.70
2018-12-09T06:18:25.425Z,4.70
2018-12-09T06:23:36.374Z,4.70
2018-12-09T06:26:14.419Z,4.80
2018-12-09T06:28:48.507Z,4.70
2018-12-09T06:31:26.599Z,4.80
2018-12-09T06:34:00.406Z,4.80
2018-12-09T06:36:34.522Z,4.80
2018-12-09T06:39:08.653Z,4.80
2018-12-09T06:41:46.699Z,4.80
2018-12-09T06:44:20.849Z,4.80
2018-12-09T06:46:55.193Z,4.80
2018-12-09T06:49:29.100Z,4.80
2018-12-09T06:52:03.398Z,4.80
2018-12-09T06:54:37.875Z,4.80
2018-12-09T06:57:12.093Z,4.80
2018-12-09T06:59:46.255Z,4.80
2018-12-09T07:02:20.361Z,4.80
2018-12-09T07:04:54.443Z,4.80
2018-12-09T07:07:28.637Z,4.90
2018-12-09T07:10:02.609Z,4.90
2018-12-09T07:12:40.934Z,4.90
2018-12-09T07:15:15.862Z,4.90
2018-12-09T07:17:53.890Z,4.90
2018-12-09T07:20:27.920Z,4.90
2018-12-09T07:25:38.980Z,5.00
2018-12-09T07:28:13.181Z,4.90
2018-12-09T07:30:47.207Z,5.00
2018-12-09T07:33:21.228Z,5.00
2018-12-09T07:35:55.463Z,5.00
2018-12-09T07:38:30.426Z,5.00
2018-12-09T07:41:05.069Z,5.00
2018-12-09T07:43:43.345Z,5.00
2018-12-09T07:46:21.237Z,5.00
2018-12-09T07:48:59.095Z,5.00
2018-12-09T07:51:34.349Z,5.00
2018-12-09T07:54:08.542Z,5.10
2018-12-09T07:56:42.669Z,5.10
2018-12-09T07:59:16.767Z,5.10
2018-12-09T08:01:55.691Z,5.10
2018-12-09T08:04:34.034Z,5.10
2018-12-09T08:07:08.141Z,5.10
2018-12-09T08:09:42.944Z,5.10
2018-12-09T08:12:17.560Z,5.10
2018-12-09T08:14:52.513Z,5.20
2018-12-09T08:17:26.950Z,5.20
2018-12-09T08:20:00.719Z,5.30
2018-12-09T08:22:35.182Z,5.50
2018-12-09T08:25:09.392Z,5.50
2018-12-09T08:27:43.546Z,5.50
2018-12-09T08:30:18.033Z,5.50
2018-12-09T08:32:52.307Z,5.50
2018-12-09T08:35:26.354Z,5.50
2018-12-09T08:38:00.328Z,5.60
2018-12-09T08:40:34.289Z,5.70
2018-12-09T08:43:08.654Z,5.70
2018-12-09T08:45:43.773Z,5.70
2018-12-09T08:48:17.959Z,5.60
2018-12-09T08:50:52.027Z,5.60
2018-12-09T08:53:26.032Z,5.60
2018-12-09T08:56:00.403Z,5.50
2018-12-09T08:58:34.911Z,5.50
2018-12-09T09:01:09.072Z,5.50
2018-12-09T09:03:44.024Z,5.60
2018-12-09T09:06:17.867Z,5.60
2018-12-09T09:08:52.100Z,5.70
2018-12-09T09:11:30.153Z,5.80
2018-12-09T09:14:04.443Z,5.80
2018-12-09T09:16:38.628Z,5.90
2018-12-09T09:19:16.947Z,5.90
2018-12-09T09:21:51.081Z,5.90
2018-12-09T09:24:25.512Z,5.90
2018-12-09T09:27:00.360Z,5.90
2018-12-09T09:29:34.491Z,5.90
2018-12-09T09:32:08.529Z,5.90
2018-12-09T09:34:42.979Z,5.90
2018-12-09T09:37:21.088Z,6.00
2018-12-09T09:39:55.414Z,6.00
2018-12-09T09:42:29.523Z,6.10
2018-12-09T09:45:03.984Z,6.10
2018-12-09T09:47:38.881Z,6.10
2018-12-09T09:50:13.006Z,6.10
2018-12-09T09:52:47.454Z,6.10
2018-12-09T09:55:21.341Z,6.10
2018-12-09T09:57:59.533Z,6.10
2018-12-09T10:00:33.906Z,6.10
2018-12-09T10:03:08.904Z,6.00
2018-12-09T10:05:47.326Z,6.00
2018-12-09T10:08:25.527Z,6.10
2018-12-09T10:10:59.478Z,6.30
2018-12-09T10:13:33.447Z,6.50
2018-12-09T10:16:07.651Z,6.40
2018-12-09T10:18:42.073Z,6.30
2018-12-09T10:21:16.815Z,6.20
2018-12-09T10:23:51.683Z,6.20
2018-12-09T10:26:25.681Z,6.20
2018-12-09T10:28:59.930Z,6.20
2018-12-09T10:31:34.800Z,6.30
2018-12-09T10:34:12.922Z,6.20
2018-12-09T10:36:47.180Z,6.30
2018-12-09T10:39:27.314Z,6.20
2018-12-09T10:42:02.036Z,6.20
2018-12-09T10:44:37.227Z,6.20
2018-12-09T10:47:11.474Z,6.30
2018-12-09T10:49:45.435Z,6.30
2018-12-09T10:52:19.514Z,6.30
2018-12-09T10:54:53.592Z,6.40
2018-12-09T10:57:27.756Z,6.40
2018-12-09T11:00:02.161Z,6.50
2018-12-09T11:02:37.092Z,6.60
2018-12-09T11:05:11.458Z,6.80
2018-12-09T11:07:45.552Z,7.10
2018-12-09T11:10:19.589Z,7.50
2018-12-09T11:12:53.898Z,7.70
2018-12-09T11:15:27.884Z,7.70
2018-12-09T11:18:01.971Z,7.80
2018-12-09T11:20:36.194Z,8.10
2018-12-09T11:23:10.425Z,8.40
2018-12-09T11:25:45.851Z,8.60
2018-12-09T11:28:20.484Z,8.90
2018-12-09T11:30:54.653Z,9.10
2018-12-09T11:33:32.829Z,9.20
2018-12-09T11:36:13.927Z,9.40
2018-12-09T11:38:52.088Z,9.50
2018-12-09T11:41:26.195Z,9.60
2018-12-09T11:44:00.346Z,9.70
2018-12-09T11:46:38.315Z,9.70
2018-12-09T11:49:12.711Z,9.90
2018-12-09T11:51:46.718Z,9.90
2018-12-09T11:54:21.293Z,10.10
2018-12-09T11:56:55.365Z,10.20
2018-12-09T11:59:29.640Z,10.10
2018-12-09T12:02:03.831Z,10.10
2018-12-09T12:04:39.568Z,10.20
2018-12-09T12:07:14.513Z,10.10
2018-12-09T12:09:52.499Z,10.10
2018-12-09T12:12:26.746Z,10.20
2018-12-09T12:15:01.474Z,10.30
2018-12-09T12:17:35.762Z,10.30
2018-12-09T12:20:10.514Z,10.20
2018-12-09T12:22:44.909Z,10.10
2018-12-09T12:25:19.419Z,10.00
2018-12-09T12:27:53.875Z,10.00
2018-12-09T12:30:28.713Z,10.00
2018-12-09T12:33:02.807Z,9.90
2018-12-09T12:35:36.942Z,9.90
2018-12-09T12:38:11.644Z,9.80
2018-12-09T12:40:46.039Z,9.80
2018-12-09T12:43:20.451Z,9.80
2018-12-09T12:45:54.695Z,9.80
2018-12-09T12:48:28.946Z,9.80
2018-12-09T12:51:03.340Z,9.90
2018-12-09T12:53:38.200Z,9.90
2018-12-09T12:56:17.023Z,9.90
2018-12-09T12:58:51.900Z,10.00
2018-12-09T13:01:26.075Z,9.90
2018-12-09T13:04:00.190Z,10.00
2018-12-09T13:06:34.483Z,9.90
2018-12-09T13:09:10.234Z,10.00
2018-12-09T13:11:45.143Z,10.00
2018-12-09T13:14:20.061Z,10.10
2018-12-09T13:16:54.634Z,10.10
2018-12-09T13:19:29.976Z,10.10
2018-12-09T13:22:08.558Z,10.10
2018-12-09T13:24:43.715Z,10.20
2018-12-09T13:27:18.752Z,10.10
2018-12-09T13:29:53.315Z,10.10
2018-12-09T13:32:28.013Z,10.10
2018-12-09T13:37:35.818Z,9.90
2018-12-09T13:40:10.341Z,9.90
2018-12-09T13:42:44.360Z,9.90
2018-12-09T13:45:22.792Z,9.80
2018-12-09T13:47:57.499Z,9.80
2018-12-09T13:50:32.160Z,9.80
2018-12-09T13:53:06.111Z,9.70
2018-12-09T13:55:41.312Z,9.70
2018-12-09T13:58:19.536Z,9.60
2018-12-09T14:00:53.973Z,9.50
2018-12-09T14:03:28.107Z,9.50
2018-12-09T14:06:02.250Z,9.50
2018-12-09T14:08:36.749Z,9.40
2018-12-09T14:11:11.003Z,9.40
2018-12-09T14:13:49.847Z,9.30
2018-12-09T14:16:25.302Z,9.30
2018-12-09T14:18:59.290Z,9.20
2018-12-09T14:21:34.277Z,9.10
2018-12-09T14:24:12.541Z,9.10
2018-12-09T14:26:46.608Z,9.00
2018-12-09T14:29:21.222Z,9.00
2018-12-09T14:31:59.937Z,8.90
2018-12-09T14:34:34.736Z,8.80
2018-12-09T14:37:08.823Z,8.80
2018-12-09T14:39:42.828Z,8.70
2018-12-09T14:42:16.725Z,8.70
2018-12-09T14:44:50.963Z,8.70
2018-12-09T14:47:29.924Z,8.70
2018-12-09T14:50:04.072Z,8.80
2018-12-09T14:52:43.176Z,8.70
2018-12-09T14:55:21.065Z,8.60
2018-12-09T14:57:55.154Z,8.60
2018-12-09T15:00:33.381Z,8.60
2018-12-09T15:03:07.343Z,8.60
2018-12-09T15:05:41.512Z,8.70
2018-12-09T15:08:15.595Z,8.70
2018-12-09T15:10:54.332Z,8.60
2018-12-09T15:13:28.853Z,8.50
2018-12-09T15:16:03.049Z,8.40
2018-12-09T15:18:36.941Z,8.40
2018-12-09T15:21:11.222Z,8.40
2018-12-09T15:23:45.300Z,8.40
2018-12-09T15:26:19.507Z,8.30
2018-12-09T15:29:00.470Z,8.30
2018-12-09T15:31:34.792Z,8.30
2018-12-09T15:34:09.683Z,8.30
2018-12-09T15:36:43.607Z,8.30
2018-12-09T15:39:17.779Z,8.30
2018-12-09T15:44:25.276Z,8.20
2018-12-09T15:46:59.273Z,8.20
2018-12-09T15:49:37.488Z,8.20
2018-12-09T15:52:15.727Z,8.20
2018-12-09T15:54:50.526Z,8.10
2018-12-09T15:57:24.820Z,8.20
2018-12-09T15:59:58.984Z,8.10
2018-12-09T16:02:32.922Z,8.10
2018-12-09T16:05:14.095Z,8.10
2018-12-09T16:07:52.234Z,8.10
2018-12-09T16:10:30.451Z,8.10
2018-12-09T16:13:04.569Z,8.10
2018-12-09T16:15:42.766Z,8.10
2018-12-09T16:18:17.476Z,8.10
2018-12-09T16:20:51.603Z,8.10
2018-12-09T16:23:26.007Z,8.20
2018-12-09T16:26:00.235Z,8.10
2018-12-09T16:28:35.298Z,8.10
2018-12-09T16:31:09.698Z,8.00
2018-12-09T16:33:43.714Z,8.00
2018-12-09T16:36:17.818Z,8.00
2018-12-09T16:38:52.105Z,7.90
2018-12-09T16:41:26.305Z,8.00
2018-12-09T16:46:33.388Z,7.90
2018-12-09T16:49:08.066Z,7.90
2018-12-09T16:51:42.899Z,7.90
2018-12-09T16:54:16.819Z,7.80
2018-12-09T16:56:50.920Z,7.80
2018-12-09T16:59:25.059Z,7.80
2018-12-09T17:01:59.263Z,7.80
2018-12-09T17:04:37.338Z,7.80
2018-12-09T17:07:15.580Z,7.80
2018-12-09T17:09:49.483Z,7.80
2018-12-09T17:12:23.765Z,7.80
2018-12-09T17:15:01.899Z,7.70
2018-12-09T17:17:35.797Z,7.60
2018-12-09T17:20:14.164Z,7.60
2018-12-09T17:22:48.385Z,7.60
2018-12-09T17:25:22.414Z,7.60
2018-12-09T17:28:00.642Z,7.60
2018-12-09T17:30:34.862Z,7.60
2018-12-09T17:33:09.045Z,7.60
2018-12-09T17:35:43.415Z,7.60
2018-12-09T17:38:21.425Z,7.60
2018-12-09T17:40:59.631Z,7.60
2018-12-09T17:43:37.956Z,7.80
2018-12-09T17:46:16.197Z,7.70
2018-12-09T17:48:50.238Z,7.80
2018-12-09T17:51:24.434Z,7.90
2018-12-09T17:53:58.523Z,7.90
2018-12-09T17:56:32.554Z,8.00
2018-12-09T17:59:06.727Z,8.00
2018-12-09T18:01:44.896Z,8.10
2018-12-09T18:04:18.888Z,8.00
2018-12-09T18:06:53.165Z,8.00
2018-12-09T18:09:27.382Z,8.00
2018-12-09T18:12:01.422Z,7.90
2018-12-09T18:14:37.371Z,7.80
2018-12-09T18:17:12.346Z,7.80
2018-12-09T18:19:47.032Z,7.80
2018-12-09T18:22:21.496Z,7.80
2018-12-09T18:25:00.418Z,7.80
2018-12-09T18:27:35.204Z,7.90
2018-12-09T18:30:09.438Z,7.90
2018-12-09T18:32:43.356Z,7.80
2018-12-09T18:35:17.677Z,7.80
2018-12-09T18:37:52.838Z,7.70
2018-12-09T18:40:28.036Z,7.70
2018-12-09T18:43:02.862Z,7.70
2018-12-09T18:45:36.901Z,7.70
2018-12-09T18:50:44.078Z,7.70
2018-12-09T18:53:18.246Z,7.60
2018-12-09T18:55:57.288Z,7.60
2018-12-09T18:58:31.536Z,7.60
2018-12-09T19:01:06.694Z,7.50
2018-12-09T19:03:44.687Z,7.50
2018-12-09T19:06:19.786Z,7.50
2018-12-09T19:08:54.123Z,7.40
2018-12-09T19:11:28.433Z,7.40
2018-12-09T19:14:02.632Z,7.50
2018-12-09T19:16:40.967Z,7.50
2018-12-09T19:19:15.555Z,7.50
2018-12-09T19:21:49.553Z,7.50
2018-12-09T19:24:24.045Z,7.50
2018-12-09T19:27:02.482Z,7.50
2018-12-09T19:29:41.592Z,7.50
2018-12-09T19:32:15.807Z,7.50
2018-12-09T19:34:54.052Z,7.50
2018-12-09T19:37:28.298Z,7.60
2018-12-09T19:40:07.082Z,7.60
2018-12-09T19:42:41.349Z,7.50
2018-12-09T19:45:15.520Z,7.40
2018-12-09T19:47:49.654Z,7.40
2018-12-09T19:58:02.133Z,7.40
2018-12-09T20:00:36.312Z,7.30
2018-12-09T20:03:15.499Z,7.30
2018-12-09T20:05:49.682Z,7.30
2018-12-09T20:08:23.763Z,7.30
2018-12-09T20:10:57.978Z,7.40
2018-12-09T20:13:32.593Z,7.50
2018-12-09T20:16:06.535Z,7.50
2018-12-09T20:18:40.786Z,7.40
2018-12-09T20:21:15.213Z,7.50
2018-12-09T20:23:50.191Z,7.50
2018-12-09T20:26:28.776Z,7.60
2018-12-09T20:29:03.791Z,7.60
2018-12-09T20:31:38.268Z,7.60
2018-12-09T20:34:12.798Z,7.50
2018-12-09T20:36:47.772Z,7.50
2018-12-09T20:39:22.238Z,7.50
2018-12-09T20:41:57.168Z,7.50
2018-12-09T20:44:31.804Z,7.60
2018-12-09T20:47:05.955Z,7.60
2018-12-09T20:49:40.353Z,7.60
2018-12-09T20:52:15.160Z,7.60
2018-12-09T20:54:49.906Z,7.60
2018-12-09T20:57:24.348Z,7.60
2018-12-09T20:59:58.249Z,7.60
2018-12-09T21:02:36.174Z,7.60
2018-12-09T21:05:10.335Z,7.70
2018-12-09T21:07:44.587Z,7.60
2018-12-09T21:10:18.751Z,7.60
2018-12-09T21:12:54.097Z,7.70
2018-12-09T21:15:28.871Z,7.70
2018-12-09T21:18:03.019Z,7.70
2018-12-09T21:20:38.006Z,7.60
2018-12-09T21:23:12.708Z,7.60
2018-12-09T21:25:52.145Z,7.70
2018-12-09T21:28:26.494Z,7.70
2018-12-09T21:31:00.706Z,7.80
2018-12-09T21:33:36.540Z,7.80
2018-12-09T21:36:11.127Z,7.80
2018-12-09T21:38:45.584Z,7.70
2018-12-09T21:41:19.618Z,7.70
2018-12-09T21:43:53.590Z,7.70
2018-12-09T21:46:27.715Z,7.60
2018-12-09T21:49:02.240Z,7.70
2018-12-09T21:51:41.386Z,7.70
2018-12-09T21:54:16.099Z,7.70
2018-12-09T21:56:54.430Z,7.60
2018-12-09T21:59:28.473Z,7.60
2018-12-09T22:02:03.046Z,7.60
2018-12-09T22:04:38.231Z,7.50
2018-12-09T22:07:12.610Z,7.60
2018-12-09T22:09:50.981Z,7.60
2018-12-09T22:12:26.057Z,7.60
2018-12-09T22:15:04.525Z,7.60
2018-12-09T22:17:39.302Z,7.60
2018-12-09T22:20:14.076Z,7.60
2018-12-09T22:22:48.249Z,7.60
2018-12-09T22:25:22.216Z,7.60
2018-12-09T22:27:56.293Z,7.70
2018-12-09T22:30:30.287Z,7.80
2018-12-09T22:33:04.591Z,7.70
2018-12-09T22:35:42.817Z,7.70
2018-12-09T22:38:18.180Z,7.80
2018-12-09T22:40:52.982Z,7.80
2018-12-09T22:43:27.296Z,7.80
2018-12-09T22:46:02.440Z,7.80
2018-12-09T22:48:37.087Z,7.80
2018-12-09T22:51:10.995Z,7.80
2018-12-09T22:53:44.948Z,7.80
2018-12-09T22:56:23.709Z,7.80
2018-12-09T22:58:57.608Z,7.80
2018-12-09T23:01:35.921Z,7.90
2018-12-09T23:04:14.064Z,7.80
2018-12-09T23:06:48.207Z,7.80
2018-12-09T23:09:23.222Z,7.70
2018-12-09T23:12:01.485Z,7.80
2018-12-09T23:14:36.400Z,7.80
2018-12-09T23:17:10.514Z,7.90
2018-12-09T23:19:48.983Z,7.80
2018-12-09T23:22:27.893Z,7.80
2018-12-09T23:25:02.072Z,7.80
2018-12-09T23:27:36.473Z,7.90
2018-12-09T23:30:11.419Z,7.90
2018-12-09T23:32:45.382Z,7.90
2018-12-09T23:35:19.473Z,7.90
2018-12-09T23:37:53.547Z,7.90
2018-12-09T23:40:27.901Z,7.80
2018-12-09T23:43:02.398Z,7.70
2018-12-09T23:45:36.332Z,7.70
2018-12-09T23:48:10.739Z,7.70
2018-12-09T23:50:48.771Z,7.70
2018-12-09T23:53:22.870Z,7.70
2018-12-09T23:55:57.143Z,7.60
2018-12-09T23:58:31.434Z,7.60
